createdAt,value
2022-09-26T00:01:10.209Z,11.64
2022-09-26T00:03:37.312Z,11.67
2022-09-26T00:06:06.192Z,11.76
2022-09-26T00:08:33.569Z,11.69
2022-09-26T00:11:01.762Z,11.61
2022-09-26T00:13:29.649Z,11.57
2022-09-26T00:15:57.389Z,11.50
2022-09-26T00:18:24.922Z,11.43
2022-09-26T00:20:51.841Z,11.39
2022-09-26T00:23:19.053Z,11.45
2022-09-26T00:25:50.181Z,11.51
2022-09-26T00:28:18.111Z,11.56
2022-09-26T00:30:45.245Z,11.59
2022-09-26T00:33:12.321Z,11.58
2022-09-26T00:35:39.184Z,11.58
2022-09-26T00:38:06.529Z,11.54
2022-09-26T00:40:33.371Z,11.55
2022-09-26T00:43:00.053Z,11.57
2022-09-26T00:45:30.522Z,11.57
2022-09-26T00:48:06.845Z,11.63
2022-09-26T00:50:39.220Z,11.55
2022-09-26T00:53:10.461Z,11.46
2022-09-26T00:55:40.000Z,11.38
2022-09-26T00:58:14.667Z,11.35
2022-09-26T01:00:42.662Z,11.29
2022-09-26T01:03:09.663Z,11.28
2022-09-26T01:05:37.101Z,11.23
2022-09-26T01:08:04.416Z,11.21
2022-09-26T01:10:32.185Z,11.14
2022-09-26T01:13:01.558Z,11.11
2022-09-26T01:15:29.169Z,11.07
2022-09-26T01:17:56.030Z,11.08
2022-09-26T01:20:27.207Z,11.07
2022-09-26T01:23:30.946Z,11.04
2022-09-26T01:26:24.622Z,11.00
2022-09-26T01:29:21.161Z,10.96
2022-09-26T01:32:23.095Z,10.88
2022-09-26T01:34:59.532Z,10.75
2022-09-26T01:37:40.010Z,10.80
2022-09-26T01:40:10.997Z,10.91
2022-09-26T01:43:00.111Z,10.98
2022-09-26T01:45:33.596Z,11.03
2022-09-26T01:48:06.069Z,11.16
2022-09-26T01:50:44.232Z,11.31
2022-09-26T01:53:25.200Z,11.42
2022-09-26T01:56:00.104Z,11.53
2022-09-26T01:58:39.297Z,11.49
2022-09-26T02:01:10.672Z,11.56
2022-09-26T02:03:42.457Z,11.55
2022-09-26T02:06:13.171Z,11.61
2022-09-26T02:08:44.030Z,11.52
2022-09-26T02:11:15.280Z,11.63
2022-09-26T02:13:55.701Z,11.68
2022-09-26T02:16:32.161Z,11.59
2022-09-26T02:19:08.968Z,11.58
2022-09-26T02:21:35.719Z,11.58
2022-09-26T02:24:02.524Z,11.50
2022-09-26T02:26:29.519Z,11.52
2022-09-26T02:28:59.236Z,11.48
2022-09-26T02:31:30.278Z,11.43
2022-09-26T02:33:57.677Z,11.36
2022-09-26T02:36:26.708Z,11.24
2022-09-26T02:38:53.398Z,11.20
2022-09-26T02:41:51.006Z,11.11
2022-09-26T02:44:42.021Z,11.04
2022-09-26T02:47:28.293Z,11.04
2022-09-26T02:50:01.619Z,11.10
2022-09-26T02:52:49.756Z,11.09
2022-09-26T02:55:27.655Z,11.20
2022-09-26T02:58:12.602Z,11.25
2022-09-26T03:00:48.641Z,11.37
2022-09-26T03:03:33.817Z,11.32
2022-09-26T03:06:03.563Z,11.31
2022-09-26T03:08:35.054Z,11.31
2022-09-26T03:11:05.252Z,11.25
2022-09-26T03:13:38.101Z,11.26
2022-09-26T03:16:06.488Z,11.19
2022-09-26T03:18:42.152Z,11.21
2022-09-26T03:21:09.462Z,11.14
2022-09-26T03:23:37.788Z,11.12
2022-09-26T03:26:12.811Z,11.09
2022-09-26T03:28:50.336Z,10.92
2022-09-26T03:31:18.192Z,10.96
2022-09-26T03:33:52.280Z,10.95
2022-09-26T03:36:19.439Z,10.88
2022-09-26T03:38:46.223Z,10.88
2022-09-26T03:41:33.089Z,10.87
2022-09-26T03:44:07.638Z,10.86
2022-09-26T03:46:54.248Z,10.83
2022-09-26T03:49:21.323Z,10.83
2022-09-26T03:51:48.071Z,10.80
2022-09-26T03:54:14.992Z,10.86
2022-09-26T03:56:41.905Z,10.91
2022-09-26T03:59:09.229Z,10.89
2022-09-26T04:01:36.610Z,10.95
2022-09-26T04:04:03.247Z,11.00
2022-09-26T04:06:29.986Z,10.96
2022-09-26T04:08:59.096Z,10.85
2022-09-26T04:11:25.859Z,10.87
2022-09-26T04:13:53.968Z,10.81
2022-09-26T04:16:24.470Z,10.70
2022-09-26T04:19:12.428Z,10.66
2022-09-26T04:21:40.219Z,10.59
2022-09-26T04:24:14.629Z,10.41
2022-09-26T04:26:43.079Z,10.23
2022-09-26T04:29:10.341Z,10.20
2022-09-26T04:31:51.903Z,10.12
2022-09-26T04:34:27.243Z,10.14
2022-09-26T04:36:54.293Z,10.04
2022-09-26T04:39:21.101Z,10.02
2022-09-26T04:41:48.263Z,10.05
2022-09-26T04:44:15.301Z,10.05
2022-09-26T04:46:42.236Z,10.11
2022-09-26T04:49:09.788Z,10.11
2022-09-26T04:51:37.621Z,10.18
2022-09-26T04:54:04.694Z,10.17
2022-09-26T04:56:37.123Z,10.14
2022-09-26T04:59:05.637Z,10.09
2022-09-26T05:01:54.405Z,10.01
2022-09-26T05:04:27.740Z,9.98
2022-09-26T05:06:57.928Z,9.97
2022-09-26T05:09:30.760Z,9.92
2022-09-26T05:12:07.547Z,9.85
2022-09-26T05:14:36.342Z,9.81
2022-09-26T05:17:04.660Z,9.76
2022-09-26T05:19:32.952Z,9.79
2022-09-26T05:22:18.962Z,9.78
2022-09-26T05:25:04.615Z,9.72
2022-09-26T05:27:31.358Z,9.71
2022-09-26T05:29:58.287Z,9.71
2022-09-26T05:32:29.163Z,9.75
2022-09-26T05:34:56.251Z,9.86
2022-09-26T05:37:24.105Z,9.94
2022-09-26T05:40:09.548Z,10.01
2022-09-26T05:42:40.973Z,10.09
2022-09-26T05:45:08.904Z,10.08
2022-09-26T05:47:36.379Z,10.22
2022-09-26T05:50:09.979Z,10.37
2022-09-26T05:52:38.945Z,10.49
2022-09-26T05:55:07.997Z,10.58
2022-09-26T05:58:04.300Z,10.62
2022-09-26T06:00:53.614Z,10.68
2022-09-26T06:03:21.056Z,10.76
2022-09-26T06:06:13.792Z,10.88
2022-09-26T06:08:42.018Z,11.02
2022-09-26T06:11:22.691Z,11.15
2022-09-26T06:13:49.780Z,11.26
2022-09-26T06:16:19.580Z,11.28
2022-09-26T06:18:50.679Z,11.41
2022-09-26T06:21:19.375Z,11.42
2022-09-26T06:23:49.822Z,11.54
2022-09-26T06:26:27.226Z,11.54
2022-09-26T06:29:00.328Z,11.55
2022-09-26T06:31:30.054Z,11.64
2022-09-26T06:34:13.193Z,11.83
2022-09-26T06:36:51.598Z,11.93
2022-09-26T06:39:18.327Z,11.91
2022-09-26T06:41:46.490Z,11.89
2022-09-26T06:44:35.860Z,11.85
2022-09-26T06:47:29.232Z,11.86
2022-09-26T06:50:22.655Z,11.92
2022-09-26T06:52:53.243Z,11.86
2022-09-26T06:55:19.986Z,12.00
2022-09-26T06:57:46.671Z,12.21
2022-09-26T07:00:15.958Z,12.41
2022-09-26T07:03:01.887Z,12.60
2022-09-26T07:05:56.350Z,12.83
2022-09-26T07:08:37.738Z,12.89
2022-09-26T07:11:32.650Z,13.02
2022-09-26T07:14:02.329Z,13.11
2022-09-26T07:16:29.811Z,13.09
2022-09-26T07:19:17.099Z,13.25
2022-09-26T07:21:55.416Z,13.39
2022-09-26T07:24:34.289Z,13.41
2022-09-26T07:27:01.861Z,13.47
2022-09-26T07:29:29.269Z,13.59
2022-09-26T07:31:56.159Z,13.76
2022-09-26T07:34:42.965Z,13.85
2022-09-26T07:37:12.030Z,13.67
2022-09-26T07:39:38.769Z,13.60
2022-09-26T07:42:05.652Z,13.79
2022-09-26T07:47:37.960Z,13.77
2022-09-26T07:50:11.323Z,13.94
2022-09-26T07:52:56.376Z,14.27
2022-09-26T07:55:27.402Z,14.44
2022-09-26T07:58:13.718Z,14.59
2022-09-26T08:00:58.802Z,14.83
2022-09-26T08:04:01.756Z,14.92
2022-09-26T08:06:36.798Z,14.91
2022-09-26T08:09:03.476Z,14.93
2022-09-26T08:11:48.715Z,15.00
2022-09-26T08:14:32.249Z,14.92
2022-09-26T08:17:14.415Z,14.87
2022-09-26T08:19:41.230Z,14.99
2022-09-26T08:22:08.562Z,14.89
2022-09-26T08:24:35.816Z,14.97
2022-09-26T08:27:23.196Z,15.23
2022-09-26T08:29:51.166Z,15.52
2022-09-26T08:32:19.453Z,15.48
2022-09-26T08:34:47.205Z,15.44
2022-09-26T08:37:36.952Z,15.61
2022-09-26T08:40:26.964Z,15.36
2022-09-26T08:43:56.372Z,15.63
2022-09-26T08:46:51.689Z,15.57
2022-09-26T08:50:00.131Z,15.83
2022-09-26T08:52:36.231Z,15.85
2022-09-26T08:55:27.975Z,15.69
2022-09-26T08:58:05.887Z,15.29
2022-09-26T09:00:33.887Z,15.41
2022-09-26T09:03:23.373Z,15.39
2022-09-26T09:05:53.136Z,15.50
2022-09-26T09:08:23.557Z,15.64
2022-09-26T09:11:26.397Z,15.93
2022-09-26T09:14:29.886Z,15.97
2022-09-26T09:17:21.183Z,15.81
2022-09-26T09:20:16.237Z,15.81
2022-09-26T09:23:24.509Z,15.56
2022-09-26T09:27:52.370Z,15.55
2022-09-26T09:28:53.364Z,15.37
2022-09-26T09:31:20.629Z,15.45
2022-09-26T09:34:26.780Z,15.41
2022-09-26T09:37:24.127Z,15.17
2022-09-26T09:40:28.144Z,15.31
2022-09-26T09:43:05.321Z,15.41
2022-09-26T09:45:46.393Z,15.46
2022-09-26T09:48:13.409Z,15.49
2022-09-26T09:50:42.998Z,15.39
2022-09-26T09:53:37.152Z,15.61
2022-09-26T09:56:36.778Z,15.74
2022-09-26T09:59:41.551Z,16.00
2022-09-26T10:02:19.606Z,16.40
2022-09-26T10:04:52.902Z,16.45
2022-09-26T10:07:19.829Z,16.43
2022-09-26T10:10:13.810Z,16.18
2022-09-26T10:12:59.021Z,16.44
2022-09-26T10:16:01.510Z,16.67
2022-09-26T10:19:04.217Z,16.95
2022-09-26T10:21:34.516Z,16.58
2022-09-26T10:24:04.849Z,16.50
2022-09-26T10:26:49.575Z,16.31
2022-09-26T10:29:35.232Z,15.96
2022-09-26T10:32:02.629Z,15.80
2022-09-26T10:34:32.058Z,15.67
2022-09-26T10:37:20.455Z,15.53
2022-09-26T10:40:16.390Z,15.59
2022-09-26T10:42:47.190Z,15.82
2022-09-26T10:45:18.053Z,16.21
2022-09-26T10:48:08.172Z,16.72
2022-09-26T10:51:02.365Z,17.28
2022-09-26T10:53:38.675Z,17.49
2022-09-26T10:56:12.037Z,17.40
2022-09-26T10:58:42.629Z,17.21
2022-09-26T11:01:21.057Z,17.19
2022-09-26T11:03:49.449Z,17.09
2022-09-26T11:06:40.735Z,16.82
2022-09-26T11:09:30.968Z,16.64
2022-09-26T11:11:57.851Z,16.52
2022-09-26T11:14:31.294Z,16.66
2022-09-26T11:17:03.389Z,16.71
2022-09-26T11:19:35.396Z,16.45
2022-09-26T11:22:08.526Z,16.53
2022-09-26T11:24:55.158Z,16.61
2022-09-26T11:27:43.394Z,16.49
2022-09-26T11:30:15.163Z,16.34
2022-09-26T11:32:55.461Z,16.95
2022-09-26T11:36:11.074Z,17.06
2022-09-26T11:38:51.027Z,16.89
2022-09-26T11:41:44.101Z,16.65
2022-09-26T11:44:47.811Z,16.81
2022-09-26T11:47:44.908Z,16.86
2022-09-26T11:50:26.566Z,16.67
2022-09-26T11:54:00.517Z,16.79
2022-09-26T11:56:42.233Z,16.97
2022-09-26T11:59:21.399Z,16.76
2022-09-26T12:02:19.307Z,16.63
2022-09-26T12:05:13.847Z,16.79
2022-09-26T12:07:56.402Z,16.82
2022-09-26T12:10:45.351Z,16.38
2022-09-26T12:13:54.369Z,15.93
2022-09-26T12:16:37.373Z,14.66
2022-09-26T12:19:22.916Z,13.51
2022-09-26T12:22:23.303Z,12.69
2022-09-26T12:25:19.926Z,12.35
2022-09-26T12:28:02.438Z,12.58
2022-09-26T12:30:37.565Z,13.08
2022-09-26T12:33:51.173Z,13.83
2022-09-26T12:36:40.696Z,14.52
2022-09-26T12:39:24.679Z,14.73
2022-09-26T12:41:57.242Z,14.50
2022-09-26T12:44:39.087Z,14.51
2022-09-26T12:47:55.763Z,14.77
2022-09-26T12:50:29.334Z,14.60
2022-09-26T12:53:10.349Z,14.52
2022-09-26T12:55:49.016Z,14.36
2022-09-26T12:58:55.421Z,14.23
2022-09-26T13:02:10.125Z,14.12
2022-09-26T13:04:46.127Z,14.24
2022-09-26T13:07:21.380Z,14.25
2022-09-26T13:09:55.570Z,14.16
2022-09-26T13:12:50.856Z,14.25
2022-09-26T13:15:32.512Z,14.57
2022-09-26T13:18:05.300Z,14.55
2022-09-26T13:20:43.645Z,14.54
2022-09-26T13:23:27.498Z,14.46
2022-09-26T13:26:15.432Z,14.19
2022-09-26T13:29:18.019Z,14.07
2022-09-26T13:32:02.008Z,13.92
2022-09-26T13:34:39.582Z,14.04
2022-09-26T13:37:19.667Z,14.03
2022-09-26T13:40:21.301Z,14.21
2022-09-26T13:42:58.313Z,14.28
2022-09-26T13:45:43.126Z,14.42
2022-09-26T13:48:33.805Z,14.68
2022-09-26T13:51:19.336Z,14.80
2022-09-26T13:53:51.936Z,15.19
2022-09-26T13:56:34.547Z,15.51
2022-09-26T13:59:14.525Z,15.63
2022-09-26T14:02:19.009Z,15.80
2022-09-26T14:04:50.413Z,15.95
2022-09-26T14:08:06.083Z,15.88
2022-09-26T14:10:37.017Z,15.59
2022-09-26T14:13:24.961Z,15.46
2022-09-26T14:16:05.882Z,15.58
2022-09-26T14:18:45.343Z,15.48
2022-09-26T14:21:29.128Z,15.22
2022-09-26T14:24:20.725Z,14.95
2022-09-26T14:27:05.648Z,14.76
2022-09-26T14:29:32.660Z,14.95
2022-09-26T14:32:09.823Z,15.03
2022-09-26T14:34:53.355Z,15.26
2022-09-26T14:37:25.754Z,15.44
2022-09-26T14:40:13.880Z,15.29
2022-09-26T14:42:46.182Z,15.42
2022-09-26T14:45:25.068Z,15.43
2022-09-26T14:48:08.102Z,15.12
2022-09-26T14:50:44.371Z,15.47
2022-09-26T14:53:22.822Z,15.53
2022-09-26T14:56:03.341Z,15.66
2022-09-26T14:58:39.684Z,15.67
2022-09-26T15:01:18.151Z,15.57
2022-09-26T15:04:18.067Z,15.54
2022-09-26T15:07:00.334Z,15.44
2022-09-26T15:09:47.976Z,15.34
2022-09-26T15:12:27.507Z,15.12
2022-09-26T15:15:00.050Z,15.25
2022-09-26T15:17:33.940Z,15.30
2022-09-26T15:20:10.254Z,15.41
2022-09-26T15:22:37.191Z,15.37
2022-09-26T15:25:09.190Z,15.39
2022-09-26T15:27:35.842Z,15.20
2022-09-26T15:30:07.585Z,15.14
2022-09-26T15:32:34.379Z,15.09
2022-09-26T15:35:01.730Z,14.92
2022-09-26T15:37:34.607Z,14.86
2022-09-26T15:40:34.240Z,14.59
2022-09-26T15:43:10.496Z,14.54
2022-09-26T15:45:56.564Z,14.53
2022-09-26T15:48:34.581Z,14.35
2022-09-26T15:51:05.975Z,14.26
2022-09-26T15:53:42.963Z,14.28
2022-09-26T15:56:12.857Z,14.24
2022-09-26T15:58:39.425Z,14.18
2022-09-26T16:01:07.448Z,14.20
2022-09-26T16:03:37.255Z,14.21
2022-09-26T16:06:23.109Z,14.31
2022-09-26T16:09:00.538Z,14.19
2022-09-26T16:11:27.798Z,14.04
2022-09-26T16:13:56.693Z,13.98
2022-09-26T16:16:31.808Z,13.93
2022-09-26T16:19:03.820Z,13.87
2022-09-26T16:21:36.498Z,13.74
2022-09-26T16:24:26.943Z,13.72
2022-09-26T16:26:54.930Z,13.71
2022-09-26T16:29:34.782Z,13.63
2022-09-26T16:32:03.488Z,13.60
2022-09-26T16:34:31.625Z,13.70
2022-09-26T16:36:58.543Z,13.75
2022-09-26T16:39:29.970Z,13.68
2022-09-26T16:42:03.123Z,13.68
2022-09-26T16:44:42.617Z,13.62
2022-09-26T16:47:39.431Z,13.75
2022-09-26T16:50:26.773Z,13.69
2022-09-26T16:52:54.282Z,13.68
2022-09-26T16:55:21.711Z,13.63
2022-09-26T16:57:57.595Z,13.63
2022-09-26T17:00:48.781Z,13.64
2022-09-26T17:03:26.537Z,13.68
2022-09-26T17:05:55.622Z,13.66
2022-09-26T17:08:23.408Z,13.57
2022-09-26T17:10:50.089Z,13.50
2022-09-26T17:13:26.294Z,13.53
2022-09-26T17:15:55.602Z,13.47
2022-09-26T17:18:29.192Z,13.55
2022-09-26T17:20:56.892Z,13.58
2022-09-26T17:23:39.525Z,13.59
2022-09-26T17:26:07.797Z,13.52
2022-09-26T17:28:40.450Z,13.53
2022-09-26T17:31:10.019Z,13.56
2022-09-26T17:33:40.637Z,13.57
2022-09-26T17:36:11.037Z,13.57
2022-09-26T17:38:40.369Z,13.52
2022-09-26T17:41:07.001Z,13.52
2022-09-26T17:43:34.100Z,13.52
2022-09-26T17:46:01.081Z,13.50
2022-09-26T17:48:31.385Z,13.49
2022-09-26T17:51:00.662Z,13.47
2022-09-26T17:53:36.570Z,13.47
2022-09-26T17:56:06.336Z,13.39
2022-09-26T17:58:44.341Z,13.46
2022-09-26T18:01:23.743Z,13.39
2022-09-26T18:03:52.122Z,13.35
2022-09-26T18:06:19.379Z,13.34
2022-09-26T18:08:46.384Z,13.32
2022-09-26T18:11:15.751Z,13.33
2022-09-26T18:13:49.936Z,13.30
2022-09-26T18:16:16.932Z,13.24
2022-09-26T18:18:44.207Z,13.20
2022-09-26T18:21:15.709Z,13.11
2022-09-26T18:23:44.252Z,13.05
2022-09-26T18:26:31.615Z,13.10
2022-09-26T18:29:01.775Z,13.12
2022-09-26T18:31:30.115Z,13.15
2022-09-26T18:33:58.054Z,13.16
2022-09-26T18:36:25.000Z,13.15
2022-09-26T18:38:53.789Z,13.14
2022-09-26T18:41:22.110Z,13.18
2022-09-26T18:43:52.650Z,13.17
2022-09-26T18:46:19.603Z,13.18
2022-09-26T18:48:47.397Z,13.16
2022-09-26T18:51:14.497Z,13.21
2022-09-26T18:53:41.932Z,13.20
2022-09-26T18:56:28.835Z,13.19
2022-09-26T18:59:01.118Z,13.16
2022-09-26T19:01:35.902Z,13.17
2022-09-26T19:04:04.476Z,13.26
2022-09-26T19:06:35.234Z,13.28
2022-09-26T19:09:07.803Z,13.35
2022-09-26T19:11:35.205Z,13.25
2022-09-26T19:14:12.022Z,13.31
2022-09-26T19:16:38.720Z,13.35
2022-09-26T19:19:05.384Z,13.28
2022-09-26T19:21:51.076Z,13.28
2022-09-26T19:24:21.699Z,13.34
2022-09-26T19:26:53.908Z,13.36
2022-09-26T19:29:27.624Z,13.34
2022-09-26T19:31:54.545Z,13.34
2022-09-26T19:34:22.134Z,13.42
2022-09-26T19:36:50.280Z,13.46
2022-09-26T19:39:17.170Z,13.36
2022-09-26T19:41:43.832Z,13.40
2022-09-26T19:44:10.576Z,13.38
2022-09-26T19:46:37.560Z,13.48
2022-09-26T19:49:05.880Z,13.50
2022-09-26T19:51:34.377Z,13.44
2022-09-26T19:54:05.961Z,13.52
2022-09-26T19:56:33.367Z,13.48
2022-09-26T19:59:00.351Z,13.43
2022-09-26T20:01:27.529Z,13.33
2022-09-26T20:03:54.250Z,13.33
2022-09-26T20:06:23.005Z,13.34
2022-09-26T20:08:51.143Z,13.21
2022-09-26T20:11:17.805Z,13.24
2022-09-26T20:14:03.652Z,13.36
2022-09-26T20:16:34.488Z,13.35
2022-09-26T20:19:03.642Z,13.34
2022-09-26T20:21:30.729Z,13.34
2022-09-26T20:24:00.419Z,13.35
2022-09-26T20:26:29.516Z,13.33
2022-09-26T20:28:57.021Z,13.34
2022-09-26T20:31:28.078Z,13.33
2022-09-26T20:33:59.297Z,13.40
2022-09-26T20:36:30.739Z,13.50
2022-09-26T20:39:00.480Z,13.35
2022-09-26T20:41:38.812Z,13.47
2022-09-26T20:44:08.202Z,13.53
2022-09-26T20:46:37.018Z,13.51
2022-09-26T20:49:07.809Z,13.33
2022-09-26T20:51:35.178Z,13.16
2022-09-26T20:54:02.706Z,13.07
2022-09-26T20:56:29.589Z,13.09
2022-09-26T20:58:56.245Z,13.03
2022-09-26T21:01:23.030Z,12.94
2022-09-26T21:03:52.146Z,12.70
2022-09-26T21:06:21.309Z,12.52
2022-09-26T21:08:48.200Z,12.36
2022-09-26T21:11:20.095Z,12.42
2022-09-26T21:13:46.921Z,12.36
2022-09-26T21:16:14.946Z,12.33
2022-09-26T21:18:43.339Z,12.22
2022-09-26T21:21:23.256Z,12.29
2022-09-26T21:23:59.040Z,12.35
2022-09-26T21:26:27.771Z,12.17
2022-09-26T21:28:56.207Z,12.13
2022-09-26T21:31:28.648Z,12.22
2022-09-26T21:34:00.430Z,12.39
2022-09-26T21:36:34.732Z,12.25
2022-09-26T21:39:02.250Z,12.34
2022-09-26T21:41:29.447Z,12.34
2022-09-26T21:44:14.109Z,12.28
2022-09-26T21:46:40.790Z,12.24
2022-09-26T21:49:07.563Z,12.16
2022-09-26T21:51:35.358Z,11.99
2022-09-26T21:54:24.695Z,12.02
2022-09-26T21:56:55.436Z,11.76
2022-09-26T21:59:23.781Z,11.79
2022-09-26T22:01:50.504Z,11.64
2022-09-26T22:04:19.062Z,11.68
2022-09-26T22:06:45.763Z,11.71
2022-09-26T22:09:12.614Z,11.60
2022-09-26T22:11:39.849Z,11.51
2022-09-26T22:14:06.772Z,11.43
2022-09-26T22:16:33.510Z,11.38
2022-09-26T22:19:00.556Z,11.31
2022-09-26T22:21:27.689Z,11.28
2022-09-26T22:23:54.373Z,11.31
2022-09-26T22:26:21.155Z,11.29
2022-09-26T22:28:49.193Z,11.29
2022-09-26T22:31:16.239Z,11.22
2022-09-26T22:33:42.962Z,11.23
2022-09-26T22:36:09.776Z,11.16
2022-09-26T22:38:36.971Z,11.09
2022-09-26T22:41:06.306Z,11.10
2022-09-26T22:43:33.875Z,10.97
2022-09-26T22:46:08.980Z,10.99
2022-09-26T22:48:38.045Z,11.06
2022-09-26T22:51:05.260Z,11.07
2022-09-26T22:53:36.279Z,11.11
2022-09-26T22:56:05.627Z,11.08
2022-09-26T22:58:36.716Z,11.03
2022-09-26T23:01:05.526Z,11.07
2022-09-26T23:03:33.140Z,11.05
2022-09-26T23:06:00.328Z,11.05
2022-09-26T23:08:27.402Z,11.08
2022-09-26T23:10:55.523Z,10.98
2022-09-26T23:13:24.605Z,11.07
2022-09-26T23:15:51.260Z,11.04
2022-09-26T23:18:17.898Z,10.95
2022-09-26T23:20:45.044Z,11.04
2022-09-26T23:23:13.387Z,11.04
2022-09-26T23:25:47.889Z,10.98
2022-09-26T23:28:15.315Z,11.00
2022-09-26T23:30:42.604Z,10.92
2022-09-26T23:33:09.886Z,11.00
2022-09-26T23:35:36.844Z,10.99
2022-09-26T23:38:05.438Z,11.01
2022-09-26T23:40:34.341Z,11.03
2022-09-26T23:43:02.368Z,10.93
2022-09-26T23:45:29.181Z,10.95
2022-09-26T23:47:55.959Z,11.01
2022-09-26T23:50:22.652Z,10.99
2022-09-26T23:52:49.397Z,10.99
2022-09-26T23:55:16.961Z,10.98
2022-09-26T23:57:43.646Z,10.95
